createdAt,value
2018-01-08T11:01:32.383Z,64.90
2018-01-08T11:03:59.898Z,64.60
2018-01-08T11:06:27.377Z,65.10
2018-01-08T11:08:55.687Z,65.20
2018-01-08T11:11:23.162Z,65.20
2018-01-08T11:13:51.069Z,65.70
2018-01-08T11:16:19.315Z,65.20
2018-01-08T11:18:46.824Z,65.10
2018-01-08T11:21:14.357Z,65.30
2018-01-08T11:23:42.608Z,64.90
2018-01-08T11:26:10.125Z,64.90
2018-01-08T11:28:37.619Z,64.80
2018-01-08T11:31:05.156Z,65.80
2018-01-08T11:33:32.636Z,66.00
2018-01-08T11:36:00.296Z,65.60
2018-01-08T11:38:27.785Z,65.70
2018-01-08T11:40:56.114Z,65.20
2018-01-08T11:43:23.581Z,65.10
2018-01-08T11:45:51.124Z,64.50
2018-01-08T11:48:18.602Z,64.30
2018-01-08T11:50:46.119Z,65.10
2018-01-08T11:53:13.613Z,64.30
2018-01-08T11:55:41.243Z,65.00
2018-01-08T11:58:08.723Z,64.00
2018-01-08T12:00:36.238Z,63.90
2018-01-08T12:03:04.511Z,64.10
2018-01-08T12:05:33.049Z,63.50
2018-01-08T12:08:00.635Z,63.50
2018-01-08T12:10:28.124Z,63.80
2018-01-08T12:12:55.605Z,63.90
2018-01-08T12:15:23.113Z,63.80
2018-01-08T12:17:50.608Z,63.90
2018-01-08T12:20:18.109Z,63.90
2018-01-08T12:22:45.710Z,63.00
2018-01-08T12:25:13.959Z,63.00
2018-01-08T12:27:41.442Z,63.00
2018-01-08T12:30:09.745Z,62.50
2018-01-08T12:32:37.227Z,62.50
2018-01-08T12:35:04.717Z,62.60
2018-01-08T12:37:32.211Z,63.20
2018-01-08T12:39:59.690Z,62.50
2018-01-08T12:42:27.265Z,63.10
2018-01-08T12:44:54.759Z,62.30
2018-01-08T12:47:23.453Z,62.50
2018-01-08T12:49:51.816Z,63.60
2018-01-08T12:52:19.303Z,63.60
2018-01-08T12:54:46.795Z,63.10
2018-01-08T12:57:14.258Z,64.00
2018-01-08T12:59:41.775Z,63.10
2018-01-08T13:02:09.355Z,63.60
2018-01-08T13:04:36.874Z,63.10
2018-01-08T13:07:04.393Z,63.00
2018-01-08T13:09:31.944Z,63.20
2018-01-08T13:11:59.428Z,62.70
2018-01-08T13:14:26.894Z,63.00
2018-01-08T13:16:54.394Z,64.00
2018-01-08T13:19:21.870Z,62.20
2018-01-08T13:21:49.389Z,62.60
2018-01-08T13:24:17.758Z,63.00
2018-01-08T13:26:46.044Z,63.20
2018-01-08T13:29:15.459Z,63.70
2018-01-08T13:31:42.977Z,63.70
2018-01-08T13:34:10.959Z,64.00
2018-01-08T13:36:38.471Z,62.60
2018-01-08T13:39:05.957Z,61.00
2018-01-08T13:41:33.453Z,60.20
2018-01-08T13:44:00.964Z,61.70
2018-01-08T13:46:28.482Z,61.40
2018-01-08T13:48:55.950Z,63.00
2018-01-08T13:51:23.465Z,63.50
2018-01-08T13:53:50.946Z,64.00
2018-01-08T13:56:18.444Z,63.20
2018-01-08T13:58:45.903Z,63.00
2018-01-08T14:01:13.397Z,64.00
2018-01-08T14:03:40.871Z,64.50
2018-01-08T14:06:09.270Z,64.00
2018-01-08T14:08:36.704Z,64.00
2018-01-08T14:11:04.994Z,64.70
2018-01-08T14:13:32.525Z,64.70
2018-01-08T14:16:00.033Z,64.20
2018-01-08T14:18:27.540Z,65.00
2018-01-08T14:20:55.021Z,64.20
2018-01-08T14:23:22.686Z,65.50
2018-01-08T14:25:50.186Z,65.20
2018-01-08T14:28:17.679Z,63.70
2018-01-08T14:30:45.940Z,64.30
2018-01-08T14:35:01.420Z,64.00
2018-01-08T14:37:28.891Z,64.00
2018-01-08T14:39:56.437Z,65.50
2018-01-08T14:42:23.915Z,65.00
2018-01-08T14:44:51.424Z,63.80
2018-01-08T14:47:18.890Z,64.60
2018-01-08T14:49:46.408Z,65.40
2018-01-08T14:52:14.991Z,65.50
2018-01-08T14:54:43.635Z,64.70
2018-01-08T14:57:11.133Z,64.70
2018-01-08T14:59:39.485Z,64.00
2018-01-08T15:02:06.963Z,64.00
2018-01-08T15:04:35.232Z,64.10
2018-01-08T15:07:02.691Z,64.10
2018-01-08T15:09:30.946Z,65.00
2018-01-08T15:11:58.468Z,65.00
2018-01-08T15:14:25.963Z,65.40
2018-01-08T15:16:53.465Z,65.70
2018-01-08T15:19:20.945Z,65.00
2018-01-08T15:21:48.456Z,65.60
2018-01-08T15:24:16.714Z,65.70
2018-01-08T15:26:44.224Z,65.70
2018-01-08T15:29:11.722Z,65.20
2018-01-08T15:31:39.245Z,65.40
2018-01-08T15:34:08.756Z,65.40
2018-01-08T15:36:36.304Z,65.80
2018-01-08T15:39:03.786Z,64.70
2018-01-08T15:41:31.306Z,65.10
2018-01-08T15:43:58.792Z,65.40
2018-01-08T15:46:26.319Z,65.10
2018-01-08T15:48:53.981Z,65.20
2018-01-08T15:51:21.536Z,66.20
2018-01-08T15:53:49.810Z,65.00
2018-01-08T15:56:18.134Z,65.10
2018-01-08T15:58:45.583Z,65.20
2018-01-08T16:01:13.103Z,67.50
2018-01-08T16:03:41.351Z,66.20
2018-01-08T16:06:08.866Z,66.20
2018-01-08T16:08:36.372Z,65.20
2018-01-08T16:11:03.888Z,65.20
2018-01-08T16:13:31.379Z,65.50
2018-01-08T16:15:58.884Z,66.30
2018-01-08T16:18:26.410Z,65.50
2018-01-08T16:20:53.956Z,65.10
2018-01-08T16:23:21.454Z,64.60
2018-01-08T16:25:53.095Z,65.60
2018-01-08T16:28:20.856Z,66.00
2018-01-08T16:30:48.418Z,64.50
2018-01-08T16:33:16.705Z,66.50
2018-01-08T16:35:44.956Z,65.80
2018-01-08T16:38:12.474Z,65.90
2018-01-08T16:40:40.193Z,65.80
2018-01-08T16:43:08.472Z,66.30
2018-01-08T16:45:36.714Z,65.60
2018-01-08T16:48:04.231Z,65.50
2018-01-08T16:50:31.718Z,65.50
2018-01-08T16:52:59.213Z,65.60
2018-01-08T16:55:27.468Z,66.20
2018-01-08T16:57:54.960Z,66.10
2018-01-08T17:00:23.211Z,66.60
2018-01-08T17:02:50.733Z,66.50
2018-01-08T17:05:18.211Z,66.00
2018-01-08T17:07:45.715Z,67.10
2018-01-08T17:10:13.198Z,66.00
2018-01-08T17:12:40.720Z,66.20
2018-01-08T17:15:08.191Z,66.20
2018-01-08T17:17:35.721Z,66.20
2018-01-08T17:20:03.192Z,65.60
2018-01-08T17:22:31.454Z,67.40
2018-01-08T17:24:58.950Z,67.30
2018-01-08T17:27:26.459Z,64.50
2018-01-08T17:29:53.944Z,66.10
2018-01-08T17:32:23.118Z,66.00
2018-01-08T17:34:50.596Z,66.00
2018-01-08T17:37:18.981Z,65.60
2018-01-08T17:39:47.218Z,65.70
2018-01-08T17:42:14.727Z,65.70
2018-01-08T17:44:42.226Z,67.30
2018-01-08T17:47:09.727Z,68.10
2018-01-08T17:49:37.981Z,65.50
2018-01-08T17:52:05.504Z,65.50
2018-01-08T17:54:32.983Z,67.00
2018-01-08T17:57:00.481Z,65.80
2018-01-08T17:59:28.748Z,66.10
2018-01-08T18:01:57.017Z,66.10
2018-01-08T18:04:25.947Z,65.80
2018-01-08T18:06:53.450Z,65.80
2018-01-08T18:09:20.951Z,66.10
2018-01-08T18:11:48.490Z,66.40
2018-01-08T18:14:16.727Z,66.90
2018-01-08T18:16:44.251Z,66.90
2018-01-08T18:19:11.744Z,67.40
2018-01-08T18:21:39.255Z,66.60
2018-01-08T18:24:06.747Z,66.60
2018-01-08T18:26:34.248Z,66.50
2018-01-08T18:29:01.727Z,66.50
2018-01-08T18:31:30.004Z,66.50
2018-01-08T18:33:57.478Z,66.50
2018-01-08T18:36:24.996Z,66.50
2018-01-08T18:38:52.506Z,67.10
2018-01-08T18:41:20.029Z,67.70
2018-01-08T18:43:48.273Z,67.20
2018-01-08T18:46:15.846Z,67.00
2018-01-08T18:48:43.342Z,67.00
2018-01-08T18:51:10.839Z,66.90
2018-01-08T18:53:38.397Z,67.60
2018-01-08T18:56:05.914Z,66.30
2018-01-08T18:58:33.397Z,66.50
2018-01-08T19:01:00.945Z,66.90
2018-01-08T19:03:28.438Z,66.70
2018-01-08T19:05:55.998Z,67.00
2018-01-08T19:08:23.508Z,67.50
2018-01-08T19:10:51.009Z,68.00
2018-01-08T19:13:18.689Z,68.30
2018-01-08T19:15:46.327Z,67.40
2018-01-08T19:18:13.852Z,67.00
2018-01-08T19:20:41.318Z,68.00
2018-01-08T19:23:08.819Z,67.40
2018-01-08T19:25:36.288Z,67.70
2018-01-08T19:28:04.713Z,68.10
2018-01-08T19:30:32.183Z,68.60
2018-01-08T19:32:59.724Z,68.00
2018-01-08T19:35:27.197Z,68.10
2018-01-08T19:37:54.721Z,67.40
2018-01-08T19:40:23.021Z,68.20
2018-01-08T19:42:51.061Z,68.20
2018-01-08T19:45:18.556Z,68.00
2018-01-08T19:47:46.318Z,67.20
2018-01-08T19:50:13.899Z,68.40
2018-01-08T19:52:41.403Z,67.70
2018-01-08T19:55:08.990Z,67.70
2018-01-08T19:57:36.866Z,67.70
2018-01-08T20:00:04.352Z,67.10
2018-01-08T20:02:31.996Z,67.70
2018-01-08T20:04:59.553Z,66.90
2018-01-08T20:07:27.034Z,66.70
2018-01-08T20:09:54.579Z,67.40
2018-01-08T20:12:22.053Z,66.80
2018-01-08T20:14:49.635Z,67.60
2018-01-08T20:17:17.902Z,68.80
2018-01-08T20:19:46.264Z,68.10
2018-01-08T20:22:13.757Z,68.00
2018-01-08T20:24:42.023Z,66.40
2018-01-08T20:27:10.285Z,67.10
2018-01-08T20:29:37.826Z,67.00
2018-01-08T20:32:05.317Z,67.30
2018-01-08T20:34:33.560Z,68.10
2018-01-08T20:37:01.187Z,68.10
2018-01-08T20:39:28.656Z,68.00
2018-01-08T20:41:56.173Z,67.90
2018-01-08T20:44:24.820Z,68.60
2018-01-08T20:46:52.308Z,68.50
2018-01-08T20:49:20.570Z,66.70
2018-01-08T20:51:48.857Z,68.00
2018-01-08T20:54:17.095Z,68.00
2018-01-08T20:56:44.608Z,67.90
2018-01-08T20:59:12.861Z,66.10
2018-01-08T21:01:40.527Z,66.10
2018-01-08T21:04:08.111Z,66.40
2018-01-08T21:06:35.619Z,67.00
2018-01-08T21:09:03.100Z,66.30
2018-01-08T21:11:30.610Z,67.00
2018-01-08T21:13:58.080Z,67.00
2018-01-08T21:16:25.617Z,67.80
2018-01-08T21:18:53.125Z,67.80
2018-01-08T21:21:20.965Z,69.50
2018-01-08T21:23:48.454Z,67.30
2018-01-08T21:26:16.068Z,66.20
2018-01-08T21:28:43.541Z,68.50
2018-01-08T21:31:11.020Z,68.10
2018-01-08T21:33:38.536Z,67.50
2018-01-08T21:36:06.016Z,68.30
2018-01-08T21:38:33.560Z,66.70
2018-01-08T21:41:01.107Z,67.00
2018-01-08T21:43:28.715Z,68.20
2018-01-08T21:45:56.204Z,67.00
2018-01-08T21:48:23.733Z,69.00
2018-01-08T21:50:51.936Z,67.40
2018-01-08T21:53:20.217Z,66.60
2018-01-08T21:55:47.677Z,66.50
2018-01-08T21:58:15.191Z,66.50
2018-01-08T22:00:42.662Z,66.70
2018-01-08T22:03:10.159Z,70.30
2018-01-08T22:05:37.642Z,67.50
2018-01-08T22:08:05.167Z,66.20
2018-01-08T22:10:32.637Z,66.80
2018-01-08T22:13:00.169Z,67.40
2018-01-08T22:15:28.473Z,69.20
2018-01-08T22:17:55.992Z,69.20
2018-01-08T22:20:23.457Z,67.10
2018-01-08T22:22:51.746Z,67.70
2018-01-08T22:25:19.971Z,67.50
2018-01-08T22:27:47.504Z,67.50
2018-01-08T22:30:14.992Z,67.50
2018-01-08T22:32:42.493Z,68.40
2018-01-08T22:35:10.735Z,67.20
2018-01-08T22:37:38.227Z,67.20
2018-01-08T22:40:06.478Z,67.90
2018-01-08T22:42:34.015Z,67.90
2018-01-08T22:45:01.520Z,68.90
2018-01-08T22:47:29.812Z,67.40
2018-01-08T22:49:57.282Z,67.40
2018-01-08T22:52:24.782Z,68.60
2018-01-08T22:54:52.249Z,68.20
2018-01-08T22:57:19.762Z,68.10
2018-01-08T22:59:47.226Z,68.40
2018-01-08T23:02:14.734Z,68.50
2018-01-08T23:04:43.043Z,69.70
2018-01-08T23:07:10.562Z,69.20
2018-01-08T23:09:38.070Z,68.60
2018-01-08T23:12:05.580Z,70.20
2018-01-08T23:14:33.814Z,70.50
2018-01-08T23:17:01.340Z,70.00
2018-01-08T23:19:28.804Z,71.10
2018-01-08T23:21:56.316Z,69.50
2018-01-08T23:24:23.777Z,70.00
2018-01-08T23:26:51.282Z,70.10
2018-01-08T23:29:18.757Z,69.80
2018-01-08T23:31:46.257Z,71.00
2018-01-08T23:34:13.756Z,69.70
2018-01-08T23:36:41.258Z,70.80
2018-01-08T23:39:08.726Z,69.70
2018-01-08T23:41:36.332Z,69.00
2018-01-08T23:44:03.831Z,69.00
2018-01-08T23:46:31.309Z,69.60
2018-01-08T23:48:58.822Z,69.50
2018-01-08T23:51:26.456Z,68.70
2018-01-08T23:53:53.963Z,69.40
2018-01-08T23:56:21.437Z,69.00
2018-01-08T23:58:48.943Z,69.50
